Time;durP1;ratioP1;P1;durP2;ratioP2;P2;SDS_P1;SDS_P2;PMS_P1;PMS_P2;Temp;Humidity;BMP_temperature;BMP_pressure;BME280_temperature;BME280_humidity;BME280_pressure;Samples;Min_cycle;Max_cycle;Signal;HPM_P1;HPM_P2
2021/10/02 00:35:32;;;;;;;16.85;11.50;;;12.00;99.90;;;;;;5010756;28;20408;-52
2021/10/02 00:46:22;;;;;;;15.48;11.52;;;;;;;;;;4973569;28;20159;-54
2021/10/02 00:48:48;;;;;;;16.85;10.88;;;11.50;99.90;;;;;;4975009;28;20525;-61
2021/10/02 00:51:14;;;;;;;14.73;10.75;;;11.50;99.90;;;;;;4973319;28;20047;-59
2021/10/02 00:53:40;;;;;;;22.67;11.63;;;11.20;99.90;;;;;;4974126;28;20046;-56
2021/10/02 00:56:06;;;;;;;14.93;12.00;;;11.20;99.90;;;;;;4971104;28;20031;-58
2021/10/02 00:58:32;;;;;;;19.33;13.00;;;11.00;99.90;;;;;;4973452;28;20038;-62
2021/10/02 01:01:01;;;;;;;22.85;11.90;;;11.00;99.90;;;;;;4972423;28;20066;-57
2021/10/02 01:03:48;;;;;;;16.52;11.82;;;11.30;99.90;;;;;;4973943;28;20053;-60
2021/10/02 01:07:01;;;;;;;15.07;10.65;;;11.40;99.90;;;;;;4972713;28;20035;-56
2021/10/02 01:09:52;;;;;;;15.25;10.90;;;11.20;99.90;;;;;;4901443;29;20131;-57
2021/10/02 01:12:38;;;;;;;17.60;12.23;;;11.30;99.90;;;;;;4917056;29;20072;-53
2021/10/02 01:15:10;;;;;;;14.38;11.63;;;11.20;99.90;;;;;;4916745;29;20032;-52
2021/10/02 01:17:36;;;;;;;;;;;11.20;99.90;;;;;;4913478;29;20156;-60
2021/10/02 01:20:07;;;;;;;18.08;11.88;;;11.20;99.90;;;;;;4916967;29;19907;-59
2021/10/02 01:22:49;;;;;;;16.45;11.48;;;;;;;;;;4938381;29;20035;-57
2021/10/02 01:25:27;;;;;;;17.65;11.40;;;10.90;99.90;;;;;;4953566;29;20475;-56
2021/10/02 01:28:30;;;;;;;20.23;12.40;;;11.10;99.90;;;;;;4954452;29;20050;-63
2021/10/02 01:31:11;;;;;;;19.13;11.93;;;11.00;99.90;;;;;;4916182;29;20044;-53
2021/10/02 01:47:54;;;;;;;16.38;11.88;;;11.10;99.90;;;;;;4908561;29;20051;-59
2021/10/02 01:50:27;;;;;;;18.88;12.90;;;11.30;99.90;;;;;;4934526;29;20700;-54
2021/10/02 01:52:57;;;;;;;19.00;11.88;;;11.40;99.90;;;;;;4933756;29;20090;-58
2021/10/02 01:55:24;;;;;;;16.60;11.48;;;11.40;99.90;;;;;;4934237;29;20040;-59
2021/10/02 01:58:00;;;;;;;40.15;13.18;;;11.40;99.90;;;;;;4932766;29;20067;-58
2021/10/02 02:00:27;;;;;;;15.13;11.25;;;11.50;99.90;;;;;;4933258;29;20162;-56
2021/10/02 02:02:56;;;;;;;16.05;11.05;;;11.60;99.90;;;;;;4933449;29;20090;-51
2021/10/02 02:05:25;;;;;;;16.42;12.52;;;11.50;99.90;;;;;;4989532;28;20042;-57
2021/10/02 02:07:55;;;;;;;19.95;11.90;;;11.40;99.90;;;;;;5008159;28;20041;-55
2021/10/02 02:10:24;;;;;;;17.95;12.05;;;11.40;99.90;;;;;;5013278;28;20037;-51
2021/10/02 02:12:51;;;;;;;23.92;11.65;;;11.40;99.90;;;;;;5011139;28;20046;-54
2021/10/02 02:15:18;;;;;;;18.50;11.38;;;11.30;99.90;;;;;;5012676;28;20026;-56
2021/10/02 02:17:47;;;;;;;18.00;11.68;;;11.40;99.90;;;;;;5006905;28;20112;-56
2021/10/02 02:20:29;;;;;;;18.70;11.68;;;11.50;99.90;;;;;;5012497;28;20026;-55
2021/10/02 02:22:55;;;;;;;;;;;11.60;99.90;;;;;;5011144;28;20029;-56
2021/10/02 02:25:21;;;;;;;21.35;13.00;;;11.70;99.90;;;;;;5013914;28;19913;-57
2021/10/02 02:27:47;;;;;;;17.48;11.45;;;11.60;99.90;;;;;;5008278;28;21928;-58
2021/10/02 02:30:13;;;;;;;15.38;11.02;;;11.50;99.90;;;;;;4997009;28;20146;-60
2021/10/02 02:32:41;;;;;;;14.23;11.52;;;11.60;99.90;;;;;;4985494;28;20405;-54
2021/10/02 02:35:08;;;;;;;17.85;11.93;;;11.60;99.90;;;;;;4975031;28;20097;-55
2021/10/02 02:37:34;;;;;;;14.63;11.05;;;11.70;99.90;;;;;;4987219;28;20486;-61
2021/10/02 02:40:01;;;;;;;16.98;11.82;;;11.30;99.90;;;;;;4986183;28;20173;-56
2021/10/02 02:42:27;;;;;;;16.65;10.82;;;11.30;99.90;;;;;;4961275;28;20035;-53
2021/10/02 02:44:53;;;;;;;17.20;10.25;;;11.40;99.90;;;;;;4986863;28;20026;-57
2021/10/02 02:47:24;;;;;;;15.38;11.40;;;11.30;99.90;;;;;;4956570;28;20060;-54
2021/10/02 02:49:50;;;;;;;15.90;12.18;;;11.10;99.90;;;;;;4974139;28;20053;-55
2021/10/02 02:52:23;;;;;;;18.38;12.13;;;11.00;99.90;;;;;;4969240;28;20482;-61
2021/10/02 02:55:10;;;;;;;15.05;11.48;;;10.80;99.90;;;;;;4986280;28;20134;-58
2021/10/02 02:57:46;;;;;;;15.98;12.43;;;11.00;99.90;;;;;;4975304;28;20104;-55
2021/10/02 03:00:15;;;;;;;14.73;12.13;;;11.10;99.90;;;;;;4972762;28;20107;-56
2021/10/02 03:02:58;;;;;;;18.33;12.02;;;11.00;99.90;;;;;;4985453;28;20030;-56
2021/10/02 03:05:28;;;;;;;19.27;12.43;;;11.00;99.90;;;;;;5011925;28;20030;-57
2021/10/02 03:08:04;;;;;;;17.23;12.45;;;10.90;99.90;;;;;;5013272;28;20469;-57
2021/10/02 03:10:30;;;;;;;19.73;11.82;;;11.00;99.90;;;;;;5012172;28;20163;-56
2021/10/02 03:13:06;;;;;;;18.95;12.15;;;10.90;99.90;;;;;;5009831;28;20044;-54
2021/10/02 03:15:34;;;;;;;22.92;12.95;;;10.70;99.90;;;;;;5011239;28;20029;-55
2021/10/02 03:18:00;;;;;;;18.05;12.70;;;10.70;99.90;;;;;;5013284;28;20474;-54
2021/10/02 03:20:27;;;;;;;17.63;12.80;;;10.50;99.90;;;;;;5010891;28;20484;-57
2021/10/02 03:22:55;;;;;;;16.15;12.15;;;10.50;99.90;;;;;;5010035;28;20026;-58
2021/10/02 03:25:26;;;;;;;16.52;12.40;;;10.60;99.90;;;;;;5009108;28;20034;-56
2021/10/02 03:27:57;;;;;;;18.13;13.27;;;10.50;99.90;;;;;;5009611;28;20026;-55
2021/10/02 03:30:24;;;;;;;19.35;12.68;;;10.30;99.90;;;;;;5010808;28;20026;-62
2021/10/02 03:32:50;;;;;;;18.45;12.48;;;10.20;99.90;;;;;;5006461;28;20383;-54
2021/10/02 03:35:20;;;;;;;16.02;12.35;;;10.20;99.90;;;;;;5011127;28;20037;-58
2021/10/02 03:37:49;;;;;;;15.75;12.13;;;10.40;99.90;;;;;;5009942;28;20423;-54
2021/10/02 03:40:15;;;;;;;16.70;12.15;;;10.50;99.90;;;;;;5012564;28;20037;-54
2021/10/02 03:42:52;;;;;;;19.02;12.68;;;10.70;99.90;;;;;;5010746;28;20065;-58
2021/10/02 03:45:19;;;;;;;21.63;12.60;;;10.60;99.90;;;;;;5011128;28;20030;-56
2021/10/02 03:47:45;;;;;;;17.95;11.85;;;10.60;99.90;;;;;;5009683;28;20026;-53
2021/10/02 03:50:11;;;;;;;16.88;12.65;;;10.60;99.90;;;;;;5003009;28;20397;-54
2021/10/02 03:52:38;;;;;;;17.27;13.20;;;10.50;99.90;;;;;;5010080;28;20451;-53
2021/10/02 03:55:06;;;;;;;16.83;11.80;;;10.30;99.90;;;;;;5010592;28;20470;-55
2021/10/02 03:57:31;;;;;;;17.50;12.00;;;10.40;99.90;;;;;;5003639;28;20026;-52
2021/10/02 03:59:57;;;;;;;17.70;12.25;;;10.50;99.90;;;;;;4961527;28;20088;-55
2021/10/02 04:02:23;;;;;;;19.58;14.27;;;10.30;99.90;;;;;;5009352;28;20038;-52
2021/10/02 04:04:49;;;;;;;16.77;12.73;;;10.40;99.90;;;;;;5006609;28;20034;-59
2021/10/02 04:07:15;;;;;;;19.30;13.38;;;10.30;99.90;;;;;;5012542;28;20079;-52
2021/10/02 04:09:41;;;;;;;18.45;13.07;;;10.30;99.90;;;;;;5010107;28;20046;-57
2021/10/02 04:12:07;;;;;;;19.48;13.35;;;10.30;99.90;;;;;;5008925;28;20046;-55
2021/10/02 04:14:33;;;;;;;17.73;13.15;;;10.30;99.90;;;;;;5008545;28;20038;-59
2021/10/02 04:17:00;;;;;;;18.23;12.95;;;10.30;99.90;;;;;;5008214;28;20023;-56
2021/10/02 04:19:26;;;;;;;18.15;12.77;;;10.10;99.90;;;;;;5012603;28;20100;-56
2021/10/02 04:21:52;;;;;;;24.27;13.23;;;10.10;99.90;;;;;;5009256;28;20435;-50
2021/10/02 04:24:18;;;;;;;17.90;13.63;;;10.20;99.90;;;;;;5010608;28;20057;-54
2021/10/02 04:26:45;;;;;;;19.70;14.70;;;10.20;99.90;;;;;;5012729;28;20462;-53
2021/10/02 04:29:11;;;;;;;18.33;15.02;;;10.00;99.90;;;;;;5011882;28;20084;-54
2021/10/02 04:31:37;;;;;;;21.35;14.30;;;10.00;99.90;;;;;;5015061;28;20041;-55
2021/10/02 04:34:03;;;;;;;22.02;15.35;;;10.00;99.90;;;;;;5013555;28;20042;-52
2021/10/02 04:36:28;;;;;;;19.85;15.10;;;9.90;99.90;;;;;;5010562;28;20366;-57
2021/10/02 04:38:54;;;;;;;17.65;14.07;;;9.80;99.90;;;;;;5013557;28;20047;-53
2021/10/02 04:41:21;;;;;;;20.83;14.20;;;9.80;99.90;;;;;;5010647;28;20042;-53
2021/10/02 04:43:47;;;;;;;24.73;14.13;;;9.70;99.90;;;;;;5013844;28;20112;-56
2021/10/02 04:46:15;;;;;;;20.52;13.48;;;9.70;99.90;;;;;;5011226;28;20049;-52
2021/10/02 04:48:42;;;;;;;17.80;14.35;;;9.60;99.90;;;;;;5013984;28;20469;-51
2021/10/02 04:51:09;;;;;;;21.42;13.10;;;9.60;99.90;;;;;;5013402;28;20045;-52
2021/10/02 04:53:35;;;;;;;19.25;13.38;;;9.70;99.90;;;;;;5011936;28;20025;-54
2021/10/02 04:56:05;;;;;;;17.15;12.15;;;9.80;99.90;;;;;;5012948;28;20045;-58
2021/10/02 04:58:32;;;;;;;16.10;11.82;;;9.80;99.90;;;;;;5007115;28;20141;-52
2021/10/02 05:00:58;;;;;;;17.40;12.35;;;10.10;99.90;;;;;;5010864;28;20076;-56
2021/10/02 05:03:25;;;;;;;16.38;12.10;;;10.20;99.90;;;;;;5015066;28;20030;-56
2021/10/02 05:05:51;;;;;;;17.90;12.82;;;10.20;99.90;;;;;;5010417;28;20030;-57
2021/10/02 05:08:18;;;;;;;14.02;11.15;;;10.10;99.90;;;;;;5012218;28;20038;-57
2021/10/02 05:10:44;;;;;;;17.67;13.00;;;10.00;99.90;;;;;;5014873;28;20092;-55
2021/10/02 05:13:10;;;;;;;18.27;11.65;;;9.60;99.90;;;;;;5011963;28;20030;-57
2021/10/02 05:15:37;;;;;;;17.33;12.23;;;9.60;99.90;;;;;;5010907;28;20034;-53
2021/10/02 05:18:03;;;;;;;21.33;12.70;;;9.60;99.90;;;;;;4991908;28;20493;-56
2021/10/02 05:20:30;;;;;;;17.80;11.32;;;9.40;99.90;;;;;;4993069;28;20033;-53
2021/10/02 05:22:56;;;;;;;18.95;13.23;;;9.70;99.90;;;;;;5014192;28;20026;-54
2021/10/02 05:25:22;;;;;;;17.52;11.80;;;9.60;99.90;;;;;;5014390;28;20022;-56
2021/10/02 05:27:48;;;;;;;16.85;12.52;;;9.50;99.90;;;;;;5012161;28;20061;-54
2021/10/02 05:30:14;;;;;;;17.10;12.80;;;9.40;99.90;;;;;;5011288;28;20104;-57
2021/10/02 05:32:40;;;;;;;16.45;11.60;;;9.60;99.90;;;;;;5014731;28;20037;-56
2021/10/02 05:35:06;;;;;;;17.05;12.05;;;9.70;99.90;;;;;;5011822;28;20076;-56
2021/10/02 05:37:32;;;;;;;16.88;11.95;;;9.70;99.90;;;;;;5012900;28;20026;-57
2021/10/02 05:39:58;;;;;;;17.83;11.43;;;9.90;99.90;;;;;;5014796;28;20467;-56
2021/10/02 05:42:24;;;;;;;19.75;10.90;;;9.90;99.90;;;;;;5011808;28;20029;-54
2021/10/02 05:44:50;;;;;;;15.32;11.10;;;10.10;99.90;;;;;;5013811;28;20026;-53
2021/10/02 05:47:17;;;;;;;16.20;10.55;;;10.10;99.90;;;;;;5012956;28;20095;-56
2021/10/02 05:49:42;;;;;;;15.25;11.43;;;10.10;99.90;;;;;;5012576;28;20030;-57
2021/10/02 05:52:10;;;;;;;14.43;11.00;;;10.40;99.90;;;;;;5013022;28;20049;-55
2021/10/02 05:54:39;;;;;;;15.40;10.88;;;10.70;99.90;;;;;;5011554;28;20028;-58
2021/10/02 05:57:05;;;;;;;15.98;11.63;;;11.00;99.90;;;;;;5012952;28;20050;-54
2021/10/02 05:59:31;;;;;;;17.92;11.07;;;11.20;99.90;;;;;;5012922;28;20041;-54
2021/10/02 06:01:57;;;;;;;16.95;11.75;;;11.60;99.90;;;;;;5012911;28;20030;-60
2021/10/02 06:04:22;;;;;;;19.95;10.88;;;11.70;99.90;;;;;;5012960;28;20109;-59
2021/10/02 06:06:48;;;;;;;13.02;9.45;;;11.90;99.90;;;;;;5012462;28;21477;-55
2021/10/02 06:09:14;;;;;;;16.67;10.77;;;12.00;99.90;;;;;;5013854;28;20421;-59
2021/10/02 06:11:40;;;;;;;16.30;10.32;;;12.00;99.90;;;;;;5008274;28;20073;-54
2021/10/02 06:14:06;;;;;;;12.25;9.20;;;12.20;99.90;;;;;;4993403;28;20092;-57
2021/10/02 06:16:36;;;;;;;16.55;9.88;;;12.20;99.90;;;;;;4960457;28;20095;-53
2021/10/02 06:19:10;;;;;;;13.40;9.07;;;12.40;99.90;;;;;;5005899;28;20439;-56
2021/10/02 06:21:36;;;;;;;13.93;9.43;;;12.40;99.90;;;;;;5003354;28;20026;-53
2021/10/02 06:24:02;;;;;;;14.55;8.95;;;12.70;99.90;;;;;;5012902;28;20769;-55
2021/10/02 06:26:30;;;;;;;14.00;9.45;;;12.80;99.90;;;;;;4976357;28;20085;-57
2021/10/02 06:28:56;;;;;;;9.85;8.27;;;13.00;99.90;;;;;;5010805;28;20045;-54
2021/10/02 06:31:22;;;;;;;11.38;8.05;;;13.00;99.90;;;;;;5005360;28;20034;-55
2021/10/02 06:33:48;;;;;;;11.70;7.13;;;13.30;99.90;;;;;;5010089;28;20084;-55
2021/10/02 06:36:14;;;;;;;10.85;8.05;;;13.50;99.90;;;;;;4985874;28;20034;-54
2021/10/02 06:38:40;;;;;;;7.97;5.25;;;13.70;99.90;;;;;;4983311;28;20410;-54
2021/10/02 06:41:07;;;;;;;12.70;7.72;;;13.80;99.90;;;;;;4982618;28;20450;-58
2021/10/02 06:43:35;;;;;;;10.48;7.55;;;13.90;99.90;;;;;;4957434;28;20057;-56
2021/10/02 06:46:02;;;;;;;7.97;5.50;;;14.10;99.90;;;;;;4981809;28;20085;-54
2021/10/02 06:48:28;;;;;;;10.55;6.57;;;14.20;99.90;;;;;;4972496;28;20422;-55
2021/10/02 06:50:54;;;;;;;11.02;7.30;;;14.50;99.90;;;;;;4990437;28;20485;-57
2021/10/02 06:53:20;;;;;;;12.00;8.07;;;14.70;99.70;;;;;;4941779;28;20038;-51
2021/10/02 06:55:46;;;;;;;9.07;6.07;;;15.40;99.40;;;;;;4991458;28;20093;-56
2021/10/02 06:58:12;;;;;;;10.98;5.88;;;16.20;97.90;;;;;;4990179;28;20042;-59
2021/10/02 07:00:39;;;;;;;7.32;4.55;;;15.70;97.50;;;;;;4957825;28;20506;-56
2021/10/02 07:03:05;;;;;;;9.63;6.35;;;15.80;97.00;;;;;;4989479;28;20031;-54
2021/10/02 07:05:32;;;;;;;11.38;7.43;;;16.30;96.90;;;;;;4973743;28;20034;-54
2021/10/02 07:07:58;;;;;;;5.90;3.42;;;16.50;96.90;;;;;;5007069;28;20041;-57
2021/10/02 07:10:24;;;;;;;11.32;5.95;;;16.70;95.40;;;;;;5008645;28;20510;-57
2021/10/02 07:12:51;;;;;;;5.90;4.57;;;16.80;95.20;;;;;;5012044;28;20033;-53
2021/10/02 07:15:18;;;;;;;9.18;6.00;;;17.10;95.30;;;;;;5010120;28;20121;-49
2021/10/02 07:17:44;;;;;;;7.93;4.25;;;17.40;94.70;;;;;;5008860;28;20030;-55
2021/10/02 07:20:12;;;;;;;12.63;6.55;;;17.20;94.10;;;;;;5007295;28;20034;-54
2021/10/02 07:22:38;;;;;;;6.78;5.13;;;17.60;95.10;;;;;;4991067;28;20061;-57
2021/10/02 07:25:24;;;;;;;8.05;4.80;;;18.00;93.70;;;;;;5008714;28;20496;-52
2021/10/02 07:27:50;;;;;;;7.07;4.68;;;18.30;93.10;;;;;;5005592;28;20034;-59
2021/10/02 07:30:16;;;;;;;6.20;3.78;;;18.30;92.40;;;;;;5011880;28;20030;-52
2021/10/02 07:32:42;;;;;;;11.00;5.80;;;18.20;92.10;;;;;;5003994;28;20046;-51
2021/10/02 07:35:10;;;;;;;8.00;4.82;;;18.70;92.30;;;;;;5006675;28;20066;-49
2021/10/02 07:37:36;;;;;;;7.03;4.43;;;18.60;91.40;;;;;;5003843;28;20383;-57
2021/10/02 07:40:05;;;;;;;11.95;5.10;;;18.60;91.20;;;;;;5005965;28;20058;-56
2021/10/02 07:42:34;;;;;;;12.13;5.63;;;18.90;91.10;;;;;;4961496;28;20042;-53
2021/10/02 07:45:08;;;;;;;10.20;4.88;;;19.20;90.80;;;;;;5012813;28;20089;-51
2021/10/02 07:47:43;;;;;;;6.25;4.22;;;19.50;90.50;;;;;;4989830;28;20030;-50
2021/10/02 07:50:11;;;;;;;5.13;4.18;;;19.40;89.70;;;;;;4982641;28;20027;-54
2021/10/02 07:52:38;;;;;;;5.45;3.25;;;19.90;89.60;;;;;;4988802;28;20105;-53
2021/10/02 07:55:07;;;;;;;9.27;3.63;;;20.00;88.40;;;;;;4973777;28;20136;-57
2021/10/02 07:57:36;;;;;;;5.72;3.33;;;19.80;88.30;;;;;;4938872;28;20058;-56
2021/10/02 08:00:05;;;;;;;7.60;4.22;;;19.80;88.10;;;;;;4967293;28;20043;-52
2021/10/02 08:02:31;;;;;;;7.00;4.82;;;19.80;88.30;;;;;;4924741;28;20043;-52
2021/10/02 08:04:58;;;;;;;5.15;3.78;;;20.50;86.80;;;;;;4972126;28;20031;-58
2021/10/02 08:07:24;;;;;;;18.25;4.15;;;20.50;86.10;;;;;;4967496;28;20051;-58
2021/10/02 08:09:52;;;;;;;5.30;3.75;;;21.00;85.60;;;;;;4973050;28;20551;-54
2021/10/02 08:12:18;;;;;;;7.38;4.65;;;20.50;85.90;;;;;;4969168;28;20051;-54
2021/10/02 08:14:44;;;;;;;6.75;4.15;;;21.50;86.70;;;;;;4958017;28;20047;-56
2021/10/02 08:17:10;;;;;;;9.68;4.97;;;21.50;91.30;;;;;;4951837;28;20143;-55
2021/10/02 08:19:37;;;;;;;6.57;3.80;;;21.40;86.20;;;;;;4987085;28;20391;-56
2021/10/02 08:22:04;;;;;;;7.13;4.57;;;21.50;84.20;;;;;;4941682;28;20628;-57
2021/10/02 08:24:31;;;;;;;7.82;4.28;;;22.10;92.60;;;;;;4961168;28;20046;-58
2021/10/02 08:26:58;;;;;;;7.53;3.65;;;22.20;91.00;;;;;;4988682;28;20030;-55
2021/10/02 08:29:24;;;;;;;9.65;5.20;;;21.90;92.00;;;;;;4947550;28;20047;-56
2021/10/02 08:31:52;;;;;;;5.22;3.58;;;22.40;90.50;;;;;;4945504;28;20084;-59
2021/10/02 08:34:18;;;;;;;7.30;4.68;;;21.90;85.70;;;;;;4956309;28;20542;-57
2021/10/02 08:36:44;;;;;;;7.15;4.05;;;;;;;;;;4988393;28;20050;-58
2021/10/02 08:39:11;;;;;;;6.70;4.30;;;22.70;78.30;;;;;;4987286;28;20050;-52
2021/10/02 08:41:38;;;;;;;8.60;4.38;;;22.20;79.00;;;;;;4987148;28;20038;-51
2021/10/02 08:44:05;;;;;;;4.32;3.80;;;24.10;80.10;;;;;;4987099;28;20046;-53
2021/10/02 08:46:31;;;;;;;6.53;4.22;;;23.20;77.50;;;;;;4976710;28;20042;-53
2021/10/02 08:49:33;;;;;;;7.38;3.92;;;23.70;76.60;;;;;;4989489;28;20536;-58
2021/10/02 08:52:02;;;;;;;5.43;3.08;;;23.70;76.30;;;;;;4966330;28;20054;-56
2021/10/02 08:54:32;;;;;;;6.68;4.30;;;23.30;76.40;;;;;;4991414;28;20380;-52
2021/10/02 08:56:58;;;;;;;6.15;4.45;;;;;;;;;;4981667;28;20030;-60
2021/10/02 08:59:24;;;;;;;5.30;3.80;;;24.90;73.80;;;;;;4992578;28;20712;-52
2021/10/02 09:01:50;;;;;;;9.52;4.38;;;25.20;74.70;;;;;;5013081;28;20426;-51
2021/10/02 09:04:17;;;;;;;9.52;4.10;;;24.50;73.80;;;;;;5010924;28;20088;-57
2021/10/02 09:06:43;;;;;;;8.77;4.55;;;24.60;73.50;;;;;;5011915;28;20363;-51
2021/10/02 09:09:09;;;;;;;7.28;3.78;;;25.30;74.30;;;;;;5011682;28;20030;-53
2021/10/02 09:11:36;;;;;;;5.13;3.97;;;;;;;;;;5012746;28;20092;-57
2021/10/02 09:14:03;;;;;;;6.38;4.20;;;25.00;71.50;;;;;;5014573;28;20501;-52
2021/10/02 09:16:29;;;;;;;5.93;4.90;;;25.10;71.70;;;;;;4989704;28;20042;-51
2021/10/02 09:18:56;;;;;;;5.68;4.05;;;24.30;72.00;;;;;;5010241;28;20497;-53
2021/10/02 09:21:22;;;;;;;8.63;5.10;;;24.50;72.40;;;;;;5009391;28;20553;-58
2021/10/02 09:23:49;;;;;;;9.02;3.75;;;25.20;72.10;;;;;;5012094;28;20125;-54
2021/10/02 09:26:17;;;;;;;5.65;4.07;;;24.80;70.40;;;;;;5013042;28;20037;-49
2021/10/02 09:28:49;;;;;;;7.93;3.40;;;25.90;75.00;;;;;;4988055;28;20039;-52
2021/10/02 09:31:18;;;;;;;6.25;4.60;;;25.70;70.10;;;;;;4972240;28;20046;-50
2021/10/02 09:33:46;;;;;;;8.85;5.20;;;26.00;70.20;;;;;;4987545;28;20528;-53
2021/10/02 09:36:19;;;;;;;5.90;4.45;;;26.50;70.60;;;;;;4989457;28;20449;-51
2021/10/02 09:38:49;;;;;;;6.35;4.60;;;26.20;68.90;;;;;;4988343;28;20558;-53
2021/10/02 09:41:15;;;;;;;8.57;4.18;;;24.90;69.50;;;;;;4971849;28;20073;-52
2021/10/02 09:43:50;;;;;;;8.73;4.35;;;25.70;70.30;;;;;;4986609;28;20580;-54
2021/10/02 09:46:17;;;;;;;6.70;4.10;;;25.10;69.70;;;;;;4989859;28;20045;-50
2021/10/02 09:48:56;;;;;;;7.32;3.92;;;25.10;69.90;;;;;;4989038;28;20050;-51
2021/10/02 09:51:39;;;;;;;6.30;4.43;;;24.60;70.20;;;;;;4985741;28;20165;-49
2021/10/02 09:54:05;;;;;;;6.18;4.28;;;24.40;70.30;;;;;;4952150;28;20089;-53
2021/10/02 09:56:30;;;;;;;8.63;4.65;;;25.00;69.90;;;;;;4974751;28;20118;-51
2021/10/02 09:58:58;;;;;;;8.32;3.85;;;25.00;69.90;;;;;;4946096;28;20401;-51
2021/10/02 10:01:25;;;;;;;6.07;4.32;;;25.50;76.70;;;;;;5009720;28;20037;-52
2021/10/02 10:03:52;;;;;;;5.28;4.10;;;26.40;69.60;;;;;;5009004;28;20556;-50
2021/10/02 10:06:27;;;;;;;7.57;4.60;;;26.50;68.90;;;;;;5010518;28;20064;-55
2021/10/02 10:09:11;;;;;;;9.23;3.85;;;26.00;68.20;;;;;;5004729;28;20126;-52
2021/10/02 10:11:44;;;;;;;8.88;4.60;;;24.90;68.50;;;;;;4989590;28;20066;-50
2021/10/02 10:14:19;;;;;;;6.30;4.45;;;25.50;69.10;;;;;;5008510;28;20474;-50
2021/10/02 10:16:46;;;;;;;6.50;5.00;;;25.60;70.60;;;;;;5005994;28;20076;-54
2021/10/02 10:19:23;;;;;;;7.43;4.15;;;26.30;69.40;;;;;;5012472;28;20034;-53
2021/10/02 10:22:10;;;;;;;4.70;4.03;;;25.60;68.60;;;;;;4998619;28;20062;-52
2021/10/02 10:24:40;;;;;;;6.95;3.90;;;25.60;68.30;;;;;;5009260;28;20022;-51
2021/10/02 10:27:07;;;;;;;6.03;4.15;;;24.80;68.30;;;;;;5005426;28;20478;-54
2021/10/02 10:29:43;;;;;;;6.30;4.22;;;25.60;67.30;;;;;;5008885;28;20038;-52
2021/10/02 10:32:11;;;;;;;6.55;4.38;;;24.80;68.00;;;;;;4999278;28;20050;-55
2021/10/02 10:34:40;;;;;;;6.70;4.60;;;24.80;69.10;;;;;;5006001;28;20036;-54
2021/10/02 10:37:08;;;;;;;5.22;4.03;;;26.00;70.70;;;;;;5001113;28;20038;-56
2021/10/02 10:39:34;;;;;;;6.97;4.85;;;26.10;67.50;;;;;;5002024;28;20046;-54
2021/10/02 10:42:04;;;;;;;7.18;4.13;;;25.70;67.10;;;;;;5005644;28;20034;-54
2021/10/02 10:44:31;;;;;;;7.05;4.95;;;;;;;;;;4988893;28;20537;-53
2021/10/02 10:46:57;;;;;;;7.38;4.75;;;;;;;;;;4986254;28;20042;-53
2021/10/02 10:49:24;;;;;;;8.27;5.10;;;;;;;;;;4989405;28;20077;-54
2021/10/02 10:51:50;;;;;;;7.38;4.13;;;;;;;;;;4989684;28;20077;-56
2021/10/02 10:54:17;;;;;;;5.65;4.55;;;;;;;;;;4986325;28;20071;-53
2021/10/02 10:56:45;;;;;;;7.65;4.63;;;;;;;;;;4986891;28;20022;-54
2021/10/02 10:59:20;;;;;;;6.80;4.93;;;;;;;;;;4988707;28;20053;-55
2021/10/02 11:01:49;;;;;;;6.55;4.75;;;26.10;65.10;;;;;;4988541;28;20037;-53
2021/10/02 11:04:35;;;;;;;9.80;4.85;;;;;;;;;;4970859;28;20413;-53
2021/10/02 11:07:02;;;;;;;7.25;4.20;;;;;;;;;;4983036;28;20164;-54
2021/10/02 11:09:35;;;;;;;9.32;4.70;;;28.00;63.50;;;;;;4988104;28;20042;-54
2021/10/02 11:12:02;;;;;;;6.28;4.55;;;28.50;69.10;;;;;;4985633;28;20065;-54
2021/10/02 11:14:46;;;;;;;6.90;4.10;;;28.00;63.80;;;;;;4973669;28;20509;-52
2021/10/02 11:17:14;;;;;;;6.55;4.05;;;28.60;63.20;;;;;;5007093;28;20109;-53
2021/10/02 11:19:43;;;;;;;6.97;3.90;;;26.90;72.10;;;;;;4992769;28;20056;-52
2021/10/02 11:22:34;;;;;;;6.07;3.83;;;;;;;;;;5003426;28;20037;-53
2021/10/02 11:25:00;;;;;;;7.57;4.07;;;25.40;64.60;;;;;;4985912;28;20125;-53
2021/10/02 11:27:26;;;;;;;10.00;4.47;;;25.70;65.10;;;;;;5008699;28;20422;-52
2021/10/02 11:29:53;;;;;;;9.93;5.47;;;26.10;64.70;;;;;;5008601;28;20389;-55
2021/10/02 11:32:32;;;;;;;5.97;4.32;;;25.60;64.70;;;;;;5011483;28;20034;-54
2021/10/02 11:35:18;;;;;;;10.63;4.32;;;25.70;65.30;;;;;;5016836;28;20037;-52
2021/10/02 11:37:54;;;;;;;5.97;4.60;;;26.50;91.90;;;;;;5016836;28;20056;-54
2021/10/02 11:40:31;;;;;;;5.65;4.30;;;26.90;64.10;;;;;;5012704;28;20564;-52
2021/10/02 11:43:17;;;;;;;7.60;4.15;;;27.60;63.70;;;;;;5015078;28;20044;-54
2021/10/02 11:45:45;;;;;;;7.50;4.38;;;27.10;62.10;;;;;;5015296;28;20389;-53
2021/10/02 11:48:17;;;;;;;7.82;4.65;;;27.20;64.90;;;;;;5014364;28;20486;-54
2021/10/02 11:50:47;;;;;;;14.85;4.80;;;27.80;65.60;;;;;;5016026;28;20107;-54
2021/10/02 11:53:18;;;;;;;8.77;4.18;;;28.30;64.50;;;;;;5015244;28;20053;-53
2021/10/02 11:55:46;;;;;;;5.68;3.85;;;27.70;62.80;;;;;;5013541;28;20677;-54
2021/10/02 11:58:13;;;;;;;6.97;3.80;;;27.40;63.20;;;;;;5013295;28;20784;-52
2021/10/02 12:00:40;;;;;;;6.60;4.25;;;27.60;62.80;;;;;;5013576;28;20061;-53
2021/10/02 12:03:06;;;;;;;5.43;3.90;;;27.90;63.30;;;;;;5011881;28;20038;-53
2021/10/02 12:05:33;;;;;;;6.78;4.10;;;27.50;63.20;;;;;;5010134;28;20026;-55
2021/10/02 12:07:59;;;;;;;7.18;3.70;;;26.70;63.00;;;;;;4991437;28;20034;-53
2021/10/02 12:10:26;;;;;;;7.18;4.25;;;;;;;;;;5014154;28;20026;-52
2021/10/02 12:12:52;;;;;;;4.88;3.75;;;;;;;;;;5009522;28;20089;-52
2021/10/02 12:15:31;;;;;;;5.03;3.78;;;;;;;;;;4997975;28;20120;-52
2021/10/02 12:17:56;;;;;;;5.47;3.78;;;27.00;79.10;;;;;;5015055;28;20022;-54
2021/10/02 12:20:36;;;;;;;5.72;4.07;;;26.00;67.20;;;;;;5015732;28;20036;-52
2021/10/02 12:23:06;;;;;;;8.20;3.90;;;;;;;;;;5013581;28;20132;-53
2021/10/02 12:25:31;;;;;;;8.32;4.97;;;25.80;63.00;;;;;;5014809;28;20033;-52
2021/10/02 12:27:57;;;;;;;5.40;3.50;;;26.00;63.30;;;;;;5010506;28;20038;-52
2021/10/02 12:30:24;;;;;;;5.93;3.92;;;26.70;63.90;;;;;;5014124;28;20128;-55
2021/10/02 12:33:00;;;;;;;8.18;3.85;;;;;;;;;;5013023;28;20065;-55
2021/10/02 12:35:27;;;;;;;6.85;4.10;;;26.70;82.40;;;;;;5014870;28;20041;-53
2021/10/02 12:37:59;;;;;;;9.38;4.30;;;26.30;75.40;;;;;;5016176;28;20061;-52
2021/10/02 12:40:26;;;;;;;7.10;4.05;;;26.50;64.50;;;;;;4990268;28;20034;-50
2021/10/02 12:42:58;;;;;;;5.78;3.28;;;26.10;63.60;;;;;;5008333;28;20118;-51
2021/10/02 12:45:30;;;;;;;6.47;3.90;;;26.40;63.90;;;;;;5014687;28;20048;-53
2021/10/02 12:48:00;;;;;;;5.63;3.63;;;26.80;63.80;;;;;;5009550;28;20029;-55
2021/10/02 12:50:30;;;;;;;5.40;3.83;;;;;;;;;;5008909;28;20029;-54
2021/10/02 12:52:58;;;;;;;6.30;3.35;;;26.40;89.60;;;;;;4993510;28;20050;-53
2021/10/02 12:55:25;;;;;;;6.68;4.10;;;25.90;63.20;;;;;;5013497;28;20029;-56
2021/10/02 12:57:51;;;;;;;9.13;4.70;;;26.20;64.30;;;;;;5012531;28;20041;-53
2021/10/02 13:00:21;;;;;;;5.05;3.95;;;26.70;69.10;;;;;;5012146;28;20585;-52
2021/10/02 13:02:49;;;;;;;7.50;4.28;;;;;;;;;;5008838;28;20061;-54
2021/10/02 13:05:17;;;;;;;8.38;3.83;;;;;;;;;;5008652;28;20139;-55
2021/10/02 13:08:19;;;;;;;8.75;3.85;;;27.80;68.60;;;;;;5012564;28;20033;-56
2021/10/02 13:10:45;;;;;;;5.93;3.60;;;28.00;62.00;;;;;;4953672;28;20074;-56
2021/10/02 13:13:18;;;;;;;5.60;3.80;;;27.40;61.40;;;;;;4953469;28;20043;-53
2021/10/02 13:15:51;;;;;;;5.65;3.75;;;;;;;;;;4953915;28;20051;-52
2021/10/02 13:18:28;;;;;;;6.38;3.72;;;25.70;61.70;;;;;;4953337;28;20118;-55
2021/10/02 13:21:01;;;;;;;7.25;3.90;;;26.20;62.30;;;;;;4948994;28;20130;-53
2021/10/02 13:23:35;;;;;;;9.20;4.13;;;26.00;62.70;;;;;;4936610;28;20491;-54
2021/10/02 13:26:03;;;;;;;5.03;3.83;;;26.30;62.40;;;;;;4918471;28;20036;-54
2021/10/02 13:28:33;;;;;;;6.88;3.35;;;26.50;62.60;;;;;;4952761;28;20511;-55
2021/10/02 13:31:06;;;;;;;13.85;6.97;;;25.60;62.10;;;;;;4953866;28;20047;-55
2021/10/02 13:33:40;;;;;;;8.13;3.40;;;26.30;64.00;;;;;;4953152;28;20039;-57
2021/10/02 13:36:06;;;;;;;5.45;3.50;;;26.10;62.80;;;;;;4951431;28;20035;-53
2021/10/02 13:38:35;;;;;;;7.20;3.22;;;25.50;62.10;;;;;;4948695;28;20051;-54
2021/10/02 13:41:05;;;;;;;5.60;3.50;;;25.90;62.70;;;;;;4954279;28;20035;-54
2021/10/02 13:43:31;;;;;;;6.00;3.83;;;26.00;63.10;;;;;;4951109;28;20035;-50
2021/10/02 13:45:57;;;;;;;5.90;4.30;;;26.10;61.70;;;;;;4953223;28;20031;-51
2021/10/02 13:48:30;;;;;;;8.07;3.70;;;25.80;61.10;;;;;;4986681;28;20049;-54
2021/10/02 13:50:58;;;;;;;5.38;3.63;;;25.80;62.80;;;;;;5012714;28;20033;-54
2021/10/02 13:53:25;;;;;;;7.20;3.60;;;26.20;61.20;;;;;;5013276;28;20141;-53
2021/10/02 13:55:52;;;;;;;4.93;3.92;;;26.50;61.30;;;;;;5006807;28;20474;-54